Time;durP1;ratioP1;P1;durP2;ratioP2;P2;SDS_P1;SDS_P2;PMS_P1;PMS_P2;Temp;Humidity;BMP_temperature;BMP_pressure;BME280_temperature;BME280_humidity;BME280_pressure;Samples;Min_cycle;Max_cycle;Signal;HPM_P1;HPM_P2
2021/11/21 00:00:57;;;;;;;14.77;9.32;;;;;;;14.49;48.93;101143.25;5059838;28;20495;-76
2021/11/21 00:03:23;;;;;;;15.45;9.48;;;;;;;14.48;48.71;101151.56;5055833;28;20131;-77
2021/11/21 00:05:50;;;;;;;15.07;9.40;;;;;;;14.48;48.68;101146.09;5058413;28;20415;-77
2021/11/21 00:08:17;;;;;;;16.50;10.40;;;;;;;14.45;48.41;101139.00;5062070;28;20076;-78
2021/11/21 00:10:44;;;;;;;16.25;9.77;;;;;;;14.44;48.58;101135.41;5064509;28;20049;-80
2021/11/21 00:13:11;;;;;;;15.07;9.95;;;;;;;14.43;48.67;101125.47;5050372;28;20044;-79
2021/11/21 00:15:42;;;;;;;17.10;10.52;;;;;;;14.43;48.57;101122.75;5053467;28;20055;-77
2021/11/21 00:18:10;;;;;;;15.45;9.27;;;;;;;14.43;49.03;101124.59;5058591;28;20060;-76
2021/11/21 00:20:38;;;;;;;17.13;9.55;;;;;;;14.44;48.79;101126.34;5063053;28;20090;-77
2021/11/21 00:23:05;;;;;;;17.88;10.82;;;;;;;14.42;48.91;101128.31;5064270;28;20438;-77
2021/11/21 00:25:33;;;;;;;15.35;9.50;;;;;;;14.42;48.86;101131.03;5048555;28;20105;-76
2021/11/21 00:28:00;;;;;;;16.23;9.90;;;;;;;14.42;48.88;101131.91;5057963;28;20048;-77
2021/11/21 00:30:27;;;;;;;18.02;10.85;;;;;;;14.43;49.05;101138.25;5060767;28;20431;-76
2021/11/21 00:32:55;;;;;;;15.70;8.82;;;;;;;14.43;48.84;101122.75;5064157;28;20090;-77
2021/11/21 00:35:22;;;;;;;15.20;9.77;;;;;;;14.43;49.26;101122.75;5057954;28;20061;-76
2021/11/21 00:37:48;;;;;;;16.58;9.73;;;;;;;14.44;49.51;101115.41;5056233;28;20440;-77
2021/11/21 00:40:15;;;;;;;16.20;10.48;;;;;;;14.42;49.42;101112.78;5059352;28;20080;-76
2021/11/21 00:42:42;;;;;;;16.10;9.63;;;;;;;14.43;49.17;101111.81;5050530;28;20499;-77
2021/11/21 00:45:10;;;;;;;16.52;9.57;;;;;;;14.45;49.56;101106.22;5052543;28;20045;-77
2021/11/21 00:47:38;;;;;;;16.20;10.32;;;;;;;14.43;49.42;101100.88;5052469;28;20079;-77
2021/11/21 00:50:06;;;;;;;15.20;9.13;;;;;;;14.45;49.42;101101.63;5056811;28;20407;-76
2021/11/21 00:52:34;;;;;;;14.75;9.13;;;;;;;14.46;49.08;101094.31;5047601;28;20049;-76
2021/11/21 00:55:16;;;;;;;16.60;9.80;;;;;;;14.48;49.00;101091.47;5057005;28;20044;-77
2021/11/21 00:57:44;;;;;;;14.95;9.63;;;;;;;14.46;48.94;101083.38;5052798;28;20412;-77
2021/11/21 01:00:15;;;;;;;16.63;9.60;;;;;;;14.45;49.27;101084.38;5057118;28;20048;-77
2021/11/21 01:02:44;;;;;;;14.63;9.63;;;;;;;14.45;49.03;101084.38;5065217;28;20504;-77
2021/11/21 01:05:11;;;;;;;16.02;10.15;;;;;;;14.43;49.50;101078.16;5071619;28;20056;-77
2021/11/21 01:07:39;;;;;;;17.90;9.68;;;;;;;14.42;49.31;101076.41;5062211;28;20049;-77
2021/11/21 01:10:11;;;;;;;16.00;9.73;;;;;;;14.43;49.24;101065.38;5060220;28;20044;-77
2021/11/21 01:12:42;;;;;;;15.75;9.35;;;;;;;14.38;49.29;101063.97;5051963;28;20551;-77
2021/11/21 01:15:13;;;;;;;16.63;9.38;;;;;;;14.40;49.25;101068.38;5047295;28;20056;-77
2021/11/21 01:17:40;;;;;;;16.95;9.68;;;;;;;14.39;49.31;101057.56;5047989;28;20077;-77
2021/11/21 01:20:09;;;;;;;16.33;9.82;;;;;;;14.40;49.52;101060.16;5056807;28;20110;-77
2021/11/21 01:22:35;;;;;;;15.90;9.65;;;;;;;14.38;49.92;101055.78;5062349;28;20102;-77
2021/11/21 01:25:04;;;;;;;14.98;9.32;;;;;;;14.40;49.37;101051.97;5058815;28;20111;-76
2021/11/21 01:27:30;;;;;;;16.33;9.80;;;;;;;14.40;49.65;101043.78;5063164;28;20049;-78
2021/11/21 01:29:57;;;;;;;16.45;10.38;;;;;;;14.39;49.74;101047.50;5068405;28;20048;-77
2021/11/21 01:32:25;;;;;;;18.95;10.63;;;;;;;14.39;49.86;101044.78;5065314;28;20132;-77
2021/11/21 01:34:52;;;;;;;15.95;9.82;;;;;;;14.41;49.68;101041.91;5061267;28;20075;-77
2021/11/21 01:37:19;;;;;;;17.42;10.38;;;;;;;14.40;49.54;101041.06;5070415;28;20055;-77
2021/11/21 01:39:46;;;;;;;15.48;9.43;;;;;;;14.41;49.55;101041.91;5055005;28;20132;-77
2021/11/21 01:42:12;;;;;;;16.58;9.93;;;;;;;14.41;49.73;101033.72;5051308;28;20106;-77
2021/11/21 01:44:39;;;;;;;16.92;9.52;;;;;;;14.41;49.58;101033.72;5057794;28;20488;-77
2021/11/21 01:47:07;;;;;;;17.05;9.80;;;;;;;14.41;49.37;101042.75;5058532;28;20103;-77
2021/11/21 01:49:34;;;;;;;14.88;9.45;;;;;;;14.41;49.81;101050.13;5057221;28;20134;-77
2021/11/21 01:52:01;;;;;;;18.45;10.50;;;;;;;14.42;49.69;101040.91;5066460;28;20053;-77
2021/11/21 01:54:28;;;;;;;17.17;10.05;;;;;;;14.40;49.55;101040.19;5060881;28;20071;-77
2021/11/21 01:56:55;;;;;;;18.27;10.05;;;;;;;14.39;49.33;101027.50;5078211;28;20073;-77
2021/11/21 01:59:21;;;;;;;16.20;9.82;;;;;;;14.37;49.57;101024.84;5053574;28;20044;-77
2021/11/21 02:01:48;;;;;;;14.90;9.60;;;;;;;14.37;49.42;101029.44;5062946;28;20045;-77
2021/11/21 02:04:15;;;;;;;16.40;10.07;;;;;;;14.35;49.71;101024.09;5053566;28;20040;-77
2021/11/21 02:06:42;;;;;;;17.95;10.48;;;;;;;14.34;49.37;101019.63;5071417;28;20052;-77
2021/11/21 02:09:08;;;;;;;15.70;9.70;;;;;;;14.33;49.60;101025.25;5053958;28;20110;-77
2021/11/21 02:11:35;;;;;;;16.23;9.60;;;;;;;14.31;49.51;101014.44;5061052;28;20147;-77
2021/11/21 02:14:02;;;;;;;16.80;9.90;;;;;;;14.29;49.65;101010.94;5054513;28;20126;-78
2021/11/21 02:16:31;;;;;;;16.63;9.68;;;;;;;14.30;49.35;101006.34;5055224;28;20045;-78
2021/11/21 02:18:59;;;;;;;17.17;10.25;;;;;;;14.27;50.00;101007.47;5062062;28;20087;-78
2021/11/21 02:21:26;;;;;;;17.33;10.45;;;;;;;14.26;49.50;101004.84;5074790;28;20407;-78
2021/11/21 02:23:54;;;;;;;16.95;9.70;;;;;;;14.23;49.80;100991.47;5060281;28;20102;-78
2021/11/21 02:26:21;;;;;;;19.27;10.40;;;;;;;14.20;49.81;100991.69;5075547;28;20531;-78
2021/11/21 02:28:52;;;;;;;17.90;10.50;;;;;;;14.19;49.70;100985.34;5074093;28;20071;-78
2021/11/21 02:31:20;;;;;;;17.02;10.25;;;;;;;14.17;49.70;100978.28;5052348;28;20052;-77
2021/11/21 02:33:49;;;;;;;17.77;10.15;;;;;;;14.15;49.91;100975.69;5056651;28;20618;-78
2021/11/21 02:36:17;;;;;;;17.55;11.02;;;;;;;14.15;49.70;100974.81;5070085;28;20102;-78
2021/11/21 02:38:44;;;;;;;15.38;9.50;;;;;;;14.13;49.83;100974.06;5061265;28;20052;-78
2021/11/21 02:41:12;;;;;;;17.05;9.52;;;;;;;14.12;49.98;100965.00;5062123;28;20139;-77
2021/11/21 02:43:40;;;;;;;16.70;9.55;;;;;;;14.13;49.97;100966.75;5060265;28;20048;-77
2021/11/21 02:46:07;;;;;;;17.00;9.93;;;;;;;14.11;49.80;100957.78;5055630;28;20052;-78
2021/11/21 02:48:35;;;;;;;16.02;9.88;;;;;;;14.12;50.22;100955.94;5059842;28;20102;-77
2021/11/21 02:51:04;;;;;;;17.75;9.80;;;;;;;14.11;50.01;100955.06;5053547;28;20400;-78
2021/11/21 02:53:33;;;;;;;17.08;9.90;;;;;;;14.12;50.02;100955.94;5050283;28;20080;-77
2021/11/21 02:56:04;;;;;;;15.82;9.55;;;;;;;14.09;50.32;100952.44;5077739;28;20145;-77
2021/11/21 02:58:32;;;;;;;14.77;9.18;;;;;;;14.09;49.90;100951.56;5060534;28;20102;-78
2021/11/21 03:01:03;;;;;;;15.95;9.95;;;;;;;14.09;49.98;100940.66;5052742;28;20056;-77
2021/11/21 03:03:30;;;;;;;18.30;9.65;;;;;;;14.07;50.20;100942.66;5059938;28;20047;-77
2021/11/21 03:05:58;;;;;;;17.45;10.60;;;;;;;14.08;49.92;100947.13;5046845;28;20048;-77
2021/11/21 03:08:25;;;;;;;18.40;10.70;;;;;;;14.06;49.81;100947.25;5051757;28;20059;-77
2021/11/21 03:10:53;;;;;;;17.05;9.40;;;;;;;14.06;49.67;100932.72;5058757;28;20075;-78
2021/11/21 03:13:20;;;;;;;18.17;9.98;;;;;;;14.03;50.09;100932.97;5051655;28;20049;-78
2021/11/21 03:15:46;;;;;;;16.27;9.95;;;;;;;14.02;50.11;100923.91;5052368;28;20052;-78
2021/11/21 03:18:14;;;;;;;17.15;10.02;;;;;;;14.01;50.14;100918.56;5049235;28;20124;-77
2021/11/21 03:20:41;;;;;;;17.95;9.85;;;;;;;13.98;50.05;100919.69;5048979;28;20053;-77
2021/11/21 03:23:07;;;;;;;18.45;9.95;;;;;;;13.98;50.00;100921.56;5057733;28;20106;-77
2021/11/21 03:25:34;;;;;;;17.50;10.00;;;;;;;13.98;50.10;100916.09;5052882;28;20080;-78
2021/11/21 03:28:03;;;;;;;16.45;9.85;;;;;;;13.96;50.34;100923.53;5058367;28;20565;-78
2021/11/21 03:30:30;;;;;;;16.35;9.73;;;;;;;13.94;49.98;100911.88;5057585;28;20484;-77
2021/11/21 03:32:56;;;;;;;16.58;9.80;;;;;;;13.93;50.22;100913.72;5066235;28;20134;-78
2021/11/21 03:35:24;;;;;;;18.48;11.02;;;;;;;13.92;50.28;100909.25;5059679;28;20080;-78
2021/11/21 03:37:51;;;;;;;18.10;10.13;;;;;;;13.92;50.23;100903.78;5057401;28;20049;-78
2021/11/21 03:40:19;;;;;;;14.80;8.73;;;;;;;13.91;50.24;100901.22;5049503;28;20111;-78
2021/11/21 03:42:46;;;;;;;17.58;10.30;;;;;;;13.91;50.40;100898.47;5062114;28;20071;-77
2021/11/21 03:45:14;;;;;;;15.75;8.80;;;;;;;13.90;50.20;100892.16;5037705;28;20106;-78
2021/11/21 03:47:41;;;;;;;14.65;8.98;;;;;;;13.90;50.37;100894.00;5063790;28;20106;-78
2021/11/21 03:50:12;;;;;;;18.58;9.85;;;;;;;13.91;50.55;100901.22;5064934;28;20106;-78
2021/11/21 03:52:43;;;;;;;16.75;8.88;;;;;;;13.91;50.75;100893.91;5056623;28;20052;-77
2021/11/21 03:55:11;;;;;;;16.17;9.07;;;;;;;13.91;50.54;100896.63;5059428;28;20127;-78
2021/11/21 03:57:38;;;;;;;15.52;9.05;;;;;;;13.90;50.24;100891.28;5077648;28;20056;-78
2021/11/21 04:00:12;;;;;;;15.77;9.13;;;;;;;13.92;50.67;100889.28;5061596;28;20045;-77
2021/11/21 04:02:40;;;;;;;18.27;9.57;;;;;;;13.90;50.74;100885.81;5054652;28;20044;-78
2021/11/21 04:05:09;;;;;;;15.43;9.07;;;;;;;13.90;50.30;100881.22;5054680;28;21403;-77
2021/11/21 04:07:35;;;;;;;15.88;8.85;;;;;;;13.88;50.33;100879.59;5074170;28;20044;-78
2021/11/21 04:10:03;;;;;;;17.20;9.30;;;;;;;13.87;50.19;100872.41;5069210;28;20088;-77
2021/11/21 04:12:30;;;;;;;15.77;8.90;;;;;;;13.86;50.44;100876.13;5049839;28;20384;-78
2021/11/21 04:14:57;;;;;;;16.63;8.85;;;;;;;13.85;50.48;100877.97;5048788;28;20102;-77
2021/11/21 04:17:24;;;;;;;17.63;9.63;;;;;;;13.85;50.38;100867.06;5058060;28;20049;-77
2021/11/21 04:19:51;;;;;;;16.02;8.98;;;;;;;13.85;50.55;100874.38;5068536;28;20107;-78
2021/11/21 04:22:17;;;;;;;15.45;9.00;;;;;;;13.84;50.52;100870.78;5050936;28;20310;-78
2021/11/21 04:24:44;;;;;;;16.67;9.18;;;;;;;13.85;50.59;100868.94;5039066;28;20103;-77
2021/11/21 04:27:11;;;;;;;14.77;8.32;;;;;;;13.84;50.32;100859.00;5074550;28;20131;-78
2021/11/21 04:29:38;;;;;;;16.48;9.23;;;;;;;13.84;50.44;100862.59;5051758;28;20106;-78
2021/11/21 04:32:05;;;;;;;16.40;8.43;;;;;;;13.83;50.42;100854.56;5048656;28;20090;-78
2021/11/21 04:34:32;;;;;;;17.55;9.68;;;;;;;13.82;50.74;100853.69;5039709;28;20136;-78
2021/11/21 04:36:59;;;;;;;16.20;9.27;;;;;;;13.81;50.84;100856.53;5064975;28;20091;-77
2021/11/21 04:39:27;;;;;;;16.42;9.50;;;;;;;13.80;50.57;100852.06;5062571;28;20507;-77
2021/11/21 04:41:54;;;;;;;15.95;9.45;;;;;;;13.78;50.46;100845.84;5049036;28;20103;-77
2021/11/21 04:44:22;;;;;;;15.13;8.60;;;;;;;13.78;50.71;100837.66;5061181;28;20044;-77
2021/11/21 04:46:49;;;;;;;15.02;8.45;;;;;;;13.77;50.64;100831.34;5061277;28;20368;-77
2021/11/21 04:49:15;;;;;;;15.57;8.43;;;;;;;13.76;50.86;100837.78;5057859;28;20049;-77
2021/11/21 04:51:43;;;;;;;14.15;8.07;;;;;;;13.77;50.90;100834.06;5067998;28;20040;-77
2021/11/21 04:54:16;;;;;;;15.07;8.63;;;;;;;13.76;51.14;100837.78;5066352;28;20137;-78
2021/11/21 04:56:45;;;;;;;15.95;8.85;;;;;;;13.75;51.01;100829.75;5044619;28;20053;-77
2021/11/21 04:59:14;;;;;;;16.70;8.75;;;;;;;13.77;50.96;100833.19;5062028;28;20100;-77
2021/11/21 05:01:41;;;;;;;15.18;7.70;;;;;;;13.77;50.95;100825.88;5057918;28;20053;-77
2021/11/21 05:04:08;;;;;;;13.23;7.68;;;;;;;13.78;51.06;100826.75;5052824;28;20091;-78
2021/11/21 05:06:34;;;;;;;15.20;8.02;;;;;;;13.77;51.14;100816.81;5064422;28;20098;-78
2021/11/21 05:09:03;;;;;;;13.98;7.50;;;;;;;13.78;51.04;100813.09;5061419;28;20056;-77
2021/11/21 05:11:30;;;;;;;15.38;8.45;;;;;;;13.77;50.76;100825.00;5064723;28;20057;-78
2021/11/21 05:13:57;;;;;;;12.73;7.07;;;;;;;13.77;51.08;100819.56;5074659;28;20122;-77
2021/11/21 05:16:24;;;;;;;15.55;8.13;;;;;;;13.78;51.31;100821.28;5059536;28;20122;-78
2021/11/21 05:18:51;;;;;;;14.90;8.38;;;;;;;13.78;51.08;100811.25;5068846;28;20056;-78
2021/11/21 05:21:18;;;;;;;13.80;7.35;;;;;;;13.78;51.05;100816.72;5043302;28;20109;-78
2021/11/21 05:23:45;;;;;;;15.65;8.13;;;;;;;13.78;51.28;100813.09;5056880;28;20425;-78
2021/11/21 05:26:11;;;;;;;13.55;7.15;;;;;;;13.78;50.98;100813.97;5071735;28;20053;-78
2021/11/21 05:28:38;;;;;;;14.45;7.35;;;;;;;13.77;51.20;100817.69;5074448;28;20074;-77
2021/11/21 05:31:05;;;;;;;13.13;7.40;;;;;;;13.76;50.83;100806.91;5072312;28;20084;-77
2021/11/21 05:33:31;;;;;;;15.00;7.80;;;;;;;13.76;51.29;100805.03;5069670;28;20077;-77
2021/11/21 05:35:58;;;;;;;13.82;7.38;;;;;;;13.75;51.27;100799.72;5065525;28;20048;-77
2021/11/21 05:38:25;;;;;;;13.43;7.47;;;;;;;13.76;51.15;100807.78;5060263;28;20067;-77
2021/11/21 05:40:51;;;;;;;12.88;7.78;;;;;;;13.76;51.29;100805.03;5064625;28;20097;-77
2021/11/21 05:43:18;;;;;;;14.38;8.18;;;;;;;13.77;51.31;100800.44;5073817;28;20106;-78
2021/11/21 05:45:45;;;;;;;14.95;7.70;;;;;;;13.76;51.16;100794.13;5065521;28;20061;-77
2021/11/21 05:48:12;;;;;;;13.93;7.40;;;;;;;13.76;50.92;100798.72;5067735;28;20068;-77
2021/11/21 05:50:39;;;;;;;14.63;7.78;;;;;;;13.76;51.26;100804.16;5053732;28;20125;-77
2021/11/21 05:53:05;;;;;;;14.25;8.43;;;;;;;13.75;50.91;100806.06;5055452;28;20094;-77
2021/11/21 05:55:32;;;;;;;14.82;7.45;;;;;;;13.76;51.02;100805.03;5055921;28;20097;-77
2021/11/21 05:57:59;;;;;;;13.77;7.10;;;;;;;13.76;51.08;100802.31;5057979;28;20450;-77
2021/11/21 06:00:27;;;;;;;13.70;7.63;;;;;;;13.77;51.29;100798.59;5061643;28;20049;-78
2021/11/21 06:02:54;;;;;;;14.48;7.22;;;;;;;13.75;51.40;100797.88;5053602;28;20048;-78
2021/11/21 06:05:22;;;;;;;14.55;8.02;;;;;;;13.76;50.80;100796.84;5069592;28;20068;-78
2021/11/21 06:07:48;;;;;;;15.60;8.15;;;;;;;13.74;51.22;100787.94;5064607;28;20145;-78
2021/11/21 06:10:16;;;;;;;13.82;7.25;;;;;;;13.75;51.23;100786.09;5054309;28;20094;-78
2021/11/21 06:12:43;;;;;;;13.32;7.30;;;;;;;13.74;51.19;100801.59;5059303;28;20049;-78
2021/11/21 06:15:11;;;;;;;12.82;7.18;;;;;;;13.73;51.28;100788.06;5066301;28;20530;-78
2021/11/21 06:17:39;;;;;;;12.60;6.97;;;;;;;13.73;51.00;100788.06;5056684;28;20044;-77
2021/11/21 06:20:06;;;;;;;13.60;7.38;;;;;;;13.73;51.40;100793.53;5067682;28;20102;-77
2021/11/21 06:22:33;;;;;;;13.13;7.75;;;;;;;13.73;51.37;100788.94;5062504;28;20056;-78
2021/11/21 06:25:01;;;;;;;14.30;7.38;;;;;;;13.74;51.51;100784.34;5072119;28;20241;-78
2021/11/21 06:27:27;;;;;;;14.77;7.88;;;;;;;13.74;51.01;100790.69;5058484;28;20056;-78
2021/11/21 06:29:54;;;;;;;13.75;7.55;;;;;;;13.74;51.09;100792.53;5063500;28;20072;-77
2021/11/21 06:32:21;;;;;;;14.27;7.72;;;;;;;13.74;51.29;100785.22;5060608;28;20106;-77
2021/11/21 06:34:47;;;;;;;12.77;7.13;;;;;;;13.75;51.22;100777.91;5045777;28;20572;-78
2021/11/21 06:37:14;;;;;;;12.77;7.43;;;;;;;13.76;51.52;100782.34;5073231;28;20056;-77
2021/11/21 06:39:41;;;;;;;13.45;7.80;;;;;;;13.76;51.15;100775.03;5060332;28;20049;-77
2021/11/21 06:42:11;;;;;;;13.57;7.35;;;;;;;13.78;51.46;100769.44;5054892;28;20061;-77
2021/11/21 06:44:38;;;;;;;14.15;8.10;;;;;;;13.77;51.52;100773.16;5065071;28;20053;-77
2021/11/21 06:47:05;;;;;;;14.23;7.95;;;;;;;13.77;51.55;100752.22;5066937;28;20052;-77
2021/11/21 06:49:32;;;;;;;13.85;7.78;;;;;;;13.78;51.29;100755.81;5052258;28;20435;-77
2021/11/21 06:51:59;;;;;;;11.80;6.80;;;;;;;13.79;51.14;100752.97;5049700;28;20053;-78
2021/11/21 06:54:26;;;;;;;13.98;8.23;;;;;;;13.79;51.23;100752.09;5060349;28;20059;-78
2021/11/21 06:56:53;;;;;;;12.50;7.57;;;;;;;13.78;51.51;100762.13;5044519;28;20114;-76
2021/11/21 06:59:19;;;;;;;12.65;7.13;;;;;;;13.79;51.16;100765.72;5062257;28;20140;-78
2021/11/21 07:01:46;;;;;;;14.07;7.05;;;;;;;13.79;51.43;100766.59;5059815;28;20107;-78
2021/11/21 07:04:12;;;;;;;12.88;7.60;;;;;;;13.79;51.34;100765.72;5067964;28;20052;-77
2021/11/21 07:06:43;;;;;;;14.98;8.23;;;;;;;13.80;50.84;100765.63;5041170;28;20500;-77
2021/11/21 07:09:12;;;;;;;13.57;8.30;;;;;;;13.80;50.95;100770.19;5068786;28;20070;-77
2021/11/21 07:11:39;;;;;;;15.40;8.45;;;;;;;13.77;51.44;100765.84;5048291;28;20416;-77
2021/11/21 07:14:07;;;;;;;14.45;7.90;;;;;;;13.76;51.18;100763.25;5066800;28;20045;-77
2021/11/21 07:16:34;;;;;;;14.00;7.68;;;;;;;13.74;51.37;100768.84;5072329;28;20487;-78
2021/11/21 07:19:01;;;;;;;14.65;8.15;;;;;;;13.74;51.22;100768.84;5047052;28;20076;-78
2021/11/21 07:21:28;;;;;;;12.15;7.25;;;;;;;13.74;51.11;100770.72;5065409;28;20440;-78
2021/11/21 07:23:54;;;;;;;12.60;7.63;;;;;;;13.74;51.29;100777.03;5067838;28;20040;-77
2021/11/21 07:26:21;;;;;;;13.63;8.00;;;;;;;13.75;51.65;100783.38;5044928;28;20060;-77
2021/11/21 07:28:48;;;;;;;15.05;8.25;;;;;;;13.75;51.80;100781.50;5058894;28;20102;-78
2021/11/21 07:31:14;;;;;;;13.98;8.65;;;;;;;13.75;51.59;100788.81;5062626;28;20079;-78
2021/11/21 07:33:41;;;;;;;14.85;7.88;;;;;;;13.77;51.72;100792.28;5065378;28;20403;-78
2021/11/21 07:36:08;;;;;;;13.15;7.63;;;;;;;13.76;51.60;100785.94;5061259;28;20095;-77
2021/11/21 07:38:35;;;;;;;13.25;7.25;;;;;;;13.77;51.64;100790.41;5061798;28;20110;-76
2021/11/21 07:41:03;;;;;;;14.68;8.10;;;;;;;13.78;51.71;100785.81;5065150;28;20483;-77
2021/11/21 07:43:30;;;;;;;13.65;7.45;;;;;;;13.78;51.84;100785.81;5063564;28;20475;-77
2021/11/21 07:45:59;;;;;;;12.15;7.45;;;;;;;13.81;51.61;100785.59;5054100;28;20475;-77
2021/11/21 07:48:29;;;;;;;14.55;8.10;;;;;;;13.83;52.13;100795.41;5064513;28;20041;-77
2021/11/21 07:50:56;;;;;;;13.57;7.78;;;;;;;13.82;51.60;100785.47;5070927;28;20098;-77
2021/11/21 07:53:24;;;;;;;13.43;7.60;;;;;;;13.83;51.84;100791.78;5058998;28;20052;-76
2021/11/21 07:55:51;;;;;;;12.48;6.78;;;;;;;13.83;51.58;100787.22;5065166;28;20048;-77
2021/11/21 07:58:17;;;;;;;10.55;6.70;;;;;;;13.85;51.59;100787.91;5048673;28;20384;-77
2021/11/21 08:00:44;;;;;;;13.82;6.75;;;;;;;13.84;51.70;100794.38;5056913;28;20048;-77
2021/11/21 08:03:11;;;;;;;13.50;7.22;;;;;;;13.85;52.10;100796.13;5050744;28;20461;-77
2021/11/21 08:05:38;;;;;;;13.07;7.18;;;;;;;13.85;52.03;100795.25;5068350;28;20056;-77
2021/11/21 08:08:05;;;;;;;13.82;7.40;;;;;;;13.84;51.59;100799.81;5066873;28;20072;-76
2021/11/21 08:10:33;;;;;;;12.32;7.05;;;;;;;13.86;51.87;100799.72;5069000;28;20094;-77
2021/11/21 08:13:04;;;;;;;13.68;7.13;;;;;;;13.83;51.71;100799.97;5060672;28;20048;-77
2021/11/21 08:15:31;;;;;;;11.70;6.55;;;;;;;13.85;51.61;100792.50;5057811;28;20056;-77
2021/11/21 08:17:58;;;;;;;12.30;6.65;;;;;;;13.86;51.95;100805.16;5060123;28;20040;-77
2021/11/21 08:20:26;;;;;;;11.50;6.75;;;;;;;13.86;52.00;100800.59;5070148;28;20640;-77
2021/11/21 08:22:54;;;;;;;11.52;6.68;;;;;;;13.87;51.71;100796.88;5045400;28;20051;-77
2021/11/21 08:25:21;;;;;;;11.25;6.43;;;;;;;13.86;51.54;100802.44;5060913;28;20173;-77
2021/11/21 08:27:47;;;;;;;10.77;6.22;;;;;;;13.85;51.75;100801.56;5063386;28;20044;-77
2021/11/21 08:30:14;;;;;;;11.57;6.70;;;;;;;13.85;51.74;100806.16;5069771;28;20407;-77
2021/11/21 08:32:41;;;;;;;11.35;6.68;;;;;;;13.86;52.05;100802.44;5062227;28;20094;-77
2021/11/21 08:35:08;;;;;;;11.30;6.25;;;;;;;13.85;51.83;100797.97;5057873;28;20049;-76
2021/11/21 08:37:35;;;;;;;10.18;5.72;;;;;;;13.84;51.72;100793.50;5058676;28;20169;-77
2021/11/21 08:40:04;;;;;;;10.02;6.25;;;;;;;13.85;51.95;100795.25;5059608;28;20043;-77
2021/11/21 08:42:32;;;;;;;11.35;6.38;;;;;;;13.86;52.02;100799.72;5061736;28;20462;-77
2021/11/21 08:44:59;;;;;;;11.18;6.05;;;;;;;13.85;51.91;100801.56;5074359;28;20052;-77
2021/11/21 08:47:25;;;;;;;8.98;5.32;;;;;;;13.85;52.06;100798.84;5070437;28;20087;-78
2021/11/21 08:49:52;;;;;;;8.73;5.22;;;;;;;13.86;51.94;100794.25;5057727;28;20072;-77
2021/11/21 08:52:19;;;;;;;10.15;5.80;;;;;;;13.87;52.14;100798.72;5073137;28;20052;-73
2021/11/21 08:54:45;;;;;;;10.85;5.78;;;;;;;13.88;52.32;100803.19;5074280;28;20043;-73
2021/11/21 08:57:12;;;;;;;10.20;5.97;;;;;;;13.87;52.58;100798.72;5073429;28;20075;-74
2021/11/21 08:59:39;;;;;;;10.07;5.60;;;;;;;13.89;52.25;100797.63;5073405;28;20041;-77
2021/11/21 09:02:05;;;;;;;10.85;6.15;;;;;;;13.90;52.55;100799.34;5074460;28;20075;-77
2021/11/21 09:04:33;;;;;;;10.82;6.32;;;;;;;13.92;52.75;100791.00;5062285;28;20055;-77
2021/11/21 09:07:00;;;;;;;10.85;5.88;;;;;;;13.94;52.42;100799.94;5072052;28;20076;-77
2021/11/21 09:09:26;;;;;;;12.82;6.57;;;;;;;13.95;52.62;100791.66;5052461;28;20052;-77
2021/11/21 09:11:53;;;;;;;12.07;6.65;;;;;;;13.98;52.54;100796.00;5056367;28;20045;-76
2021/11/21 09:14:19;;;;;;;12.93;6.55;;;;;;;13.99;52.74;100793.16;5060175;28;20053;-76
2021/11/21 09:16:46;;;;;;;10.68;5.78;;;;;;;13.99;52.72;100795.88;5064403;28;20434;-77
2021/11/21 09:19:13;;;;;;;10.52;6.15;;;;;;;14.01;52.39;100787.53;5068502;28;20068;-77
2021/11/21 09:21:42;;;;;;;11.65;6.45;;;;;;;14.01;52.54;100793.88;5054796;28;20061;-76
2021/11/21 09:24:11;;;;;;;11.60;6.07;;;;;;;14.02;52.71;100795.59;5066840;28;20063;-77
2021/11/21 09:26:38;;;;;;;11.23;6.03;;;;;;;14.04;52.79;100806.41;5072121;28;20674;-77
2021/11/21 09:29:05;;;;;;;9.23;5.47;;;;;;;14.06;52.64;100810.75;5072749;28;20091;-77
2021/11/21 09:31:34;;;;;;;9.57;5.53;;;;;;;14.08;52.92;100808.75;5064494;28;20049;-77
2021/11/21 09:34:01;;;;;;;12.27;6.15;;;;;;;14.08;52.47;100807.91;5059818;28;20053;-76
2021/11/21 09:36:28;;;;;;;10.43;5.85;;;;;;;14.08;52.49;100803.28;5058997;28;20052;-76
2021/11/21 09:38:57;;;;;;;11.13;6.25;;;;;;;14.09;52.77;100815.06;5072243;28;20518;-76
2021/11/21 09:41:25;;;;;;;9.73;5.75;;;;;;;14.12;53.01;100811.22;5073202;28;20105;-76
2021/11/21 09:43:56;;;;;;;9.90;5.68;;;;;;;14.09;52.96;100815.94;5070282;28;20171;-77
2021/11/21 09:46:25;;;;;;;10.07;5.68;;;;;;;14.13;52.49;100804.78;5054127;28;20057;-76
2021/11/21 09:48:53;;;;;;;9.00;5.57;;;;;;;14.15;52.97;100816.44;5066973;28;20102;-76
2021/11/21 09:51:21;;;;;;;9.20;5.22;;;;;;;14.15;53.04;100816.44;5056779;28;20110;-76
2021/11/21 09:53:48;;;;;;;9.63;5.65;;;;;;;14.15;52.74;100817.31;5064604;28;20142;-77
2021/11/21 09:56:16;;;;;;;10.10;5.53;;;;;;;14.16;52.53;100819.06;5074948;28;20450;-77
2021/11/21 09:58:44;;;;;;;9.15;5.18;;;;;;;14.19;52.77;100818.78;5077907;28;20068;-77
2021/11/21 10:01:38;;;;;;;8.60;4.97;;;;;;;14.19;52.95;100818.78;5054023;28;20123;-77
2021/11/21 10:04:06;;;;;;;8.73;4.65;;;;;;;14.18;52.93;100825.25;5054406;28;20045;-77
2021/11/21 10:06:44;;;;;;;9.27;5.32;;;;;;;14.21;52.63;100816.81;5064239;28;20102;-77
2021/11/21 10:09:13;;;;;;;10.02;5.40;;;;;;;14.20;52.60;100817.78;5051122;28;20527;-77
2021/11/21 10:12:03;;;;;;;9.38;4.93;;;;;;;14.21;53.10;100819.53;5051857;28;20083;-77
2021/11/21 10:14:33;;;;;;;9.18;5.00;;;;;;;14.22;52.77;100817.69;5066968;28;20088;-77
2021/11/21 10:17:16;;;;;;;9.95;5.28;;;;;;;14.21;52.60;100814.06;5065808;28;20575;-77
2021/11/21 10:20:06;;;;;;;8.60;4.97;;;;;;;14.22;53.14;100806.75;5062613;28;20502;-77
2021/11/21 10:22:48;;;;;;;9.80;5.35;;;;;;;14.24;53.08;100805.63;5068224;28;20049;-77
2021/11/21 10:25:35;;;;;;;10.20;5.72;;;;;;;14.25;53.26;100809.22;5046542;28;20048;-77
2021/11/21 10:28:13;;;;;;;9.98;5.22;;;;;;;14.26;52.76;100800.03;5062983;28;20083;-76
2021/11/21 10:31:11;;;;;;;8.77;5.20;;;;;;;14.27;53.19;100813.56;5052992;28;20045;-76
2021/11/21 10:33:53;;;;;;;9.73;5.65;;;;;;;14.29;53.22;100807.97;5066353;28;20131;-77
2021/11/21 10:36:23;;;;;;;9.25;5.10;;;;;;;14.28;52.95;100803.50;5053914;28;20085;-78
2021/11/21 10:38:55;;;;;;;9.57;5.05;;;;;;;14.30;53.01;100805.13;5062038;28;20048;-78
2021/11/21 10:41:32;;;;;;;9.67;5.50;;;;;;;14.30;53.69;100805.13;5064266;28;20057;-77
2021/11/21 10:44:03;;;;;;;10.85;5.70;;;;;;;14.32;53.63;100802.28;5057629;28;20068;-76
2021/11/21 10:46:32;;;;;;;10.15;5.95;;;;;;;14.33;53.40;100796.66;5052384;28;20073;-76
2021/11/21 10:49:16;;;;;;;10.30;5.78;;;;;;;14.35;53.07;100805.59;5055073;28;20052;-77
2021/11/21 10:51:44;;;;;;;10.45;5.43;;;;;;;14.35;52.98;100796.53;5054336;28;20052;-77
2021/11/21 10:54:24;;;;;;;10.50;5.75;;;;;;;14.38;53.33;100799.03;5054405;28;20053;-77
2021/11/21 10:56:54;;;;;;;11.57;6.07;;;;;;;14.37;52.91;100800.88;5053290;28;20438;-77
2021/11/21 10:59:38;;;;;;;12.00;6.40;;;;;;;14.40;53.24;100802.53;5065969;28;20051;-76
2021/11/21 11:02:06;;;;;;;10.32;5.88;;;;;;;14.39;52.89;100795.31;5071761;28;20749;-76
2021/11/21 11:04:34;;;;;;;12.15;6.18;;;;;;;14.41;53.16;100794.19;5052001;28;20055;-77
2021/11/21 11:07:17;;;;;;;10.85;6.10;;;;;;;14.44;53.12;100798.53;5060322;28;20132;-77
2021/11/21 11:09:45;;;;;;;13.13;6.50;;;;;;;14.42;53.09;100800.50;5059061;28;20059;-76
2021/11/21 11:12:12;;;;;;;12.43;6.20;;;;;;;14.43;52.75;100808.59;5060462;28;20495;-76
2021/11/21 11:14:39;;;;;;;11.40;6.72;;;;;;;14.45;52.92;100805.72;5071622;28;20106;-76
2021/11/21 11:17:06;;;;;;;10.82;7.00;;;;;;;14.47;52.69;100806.47;5069369;28;20060;-77
2021/11/21 11:19:35;;;;;;;12.02;6.55;;;;;;;14.46;53.00;100808.34;5065960;28;20036;-76
2021/11/21 11:22:04;;;;;;;9.88;5.75;;;;;;;14.48;52.94;100804.63;5069265;28;20044;-77